sensor_id;sensor_type;location;lat;lon;timestamp;P1;durP1;ratioP1;P2;durP2;ratioP2
297;SDS011;133;49.626;9.680;2022-12-07T00:01:19;11.50;;;8.87;;
297;SDS011;133;49.626;9.680;2022-12-07T00:03:51;15.07;;;10.47;;
297;SDS011;133;49.626;9.680;2022-12-07T00:06:18;17.67;;;13.90;;
297;SDS011;133;49.626;9.680;2022-12-07T00:08:45;15.23;;;10.60;;
297;SDS011;133;49.626;9.680;2022-12-07T00:11:16;19.27;;;11.33;;
297;SDS011;133;49.626;9.680;2022-12-07T00:13:47;16.73;;;10.97;;
297;SDS011;133;49.626;9.680;2022-12-07T00:16:17;18.93;;;11.80;;
297;SDS011;133;49.626;9.680;2022-12-07T00:18:44;12.77;;;9.10;;
297;SDS011;133;49.626;9.680;2022-12-07T00:21:16;17.70;;;10.77;;
297;SDS011;133;49.626;9.680;2022-12-07T00:23:44;18.57;;;12.10;;
297;SDS011;133;49.626;9.680;2022-12-07T00:26:11;15.93;;;10.57;;
297;SDS011;133;49.626;9.680;2022-12-07T00:28:37;15.33;;;10.00;;
297;SDS011;133;49.626;9.680;2022-12-07T00:31:04;18.70;;;10.07;;
297;SDS011;133;49.626;9.680;2022-12-07T00:33:37;13.93;;;9.40;;
297;SDS011;133;49.626;9.680;2022-12-07T00:36:04;15.90;;;10.60;;
297;SDS011;133;49.626;9.680;2022-12-07T00:38:32;17.93;;;12.50;;
297;SDS011;133;49.626;9.680;2022-12-07T00:41:00;14.97;;;9.93;;
297;SDS011;133;49.626;9.680;2022-12-07T00:43:28;13.77;;;9.40;;
297;SDS011;133;49.626;9.680;2022-12-07T00:45:54;14.20;;;9.33;;
297;SDS011;133;49.626;9.680;2022-12-07T00:48:20;14.20;;;8.70;;
297;SDS011;133;49.626;9.680;2022-12-07T00:50:47;11.77;;;8.90;;
297;SDS011;133;49.626;9.680;2022-12-07T00:53:13;14.67;;;9.10;;
297;SDS011;133;49.626;9.680;2022-12-07T00:55:39;11.10;;;7.90;;
297;SDS011;133;49.626;9.680;2022-12-07T00:58:05;11.50;;;8.53;;
297;SDS011;133;49.626;9.680;2022-12-07T01:00:31;11.53;;;7.90;;
297;SDS011;133;49.626;9.680;2022-12-07T01:02:58;10.13;;;8.10;;
297;SDS011;133;49.626;9.680;2022-12-07T01:05:24;10.40;;;7.87;;
297;SDS011;133;49.626;9.680;2022-12-07T01:07:50;13.43;;;9.00;;
297;SDS011;133;49.626;9.680;2022-12-07T01:10:15;14.70;;;9.57;;
297;SDS011;133;49.626;9.680;2022-12-07T01:12:41;11.77;;;8.63;;
297;SDS011;133;49.626;9.680;2022-12-07T01:15:07;12.10;;;8.83;;
297;SDS011;133;49.626;9.680;2022-12-07T01:17:33;14.30;;;9.47;;
297;SDS011;133;49.626;9.680;2022-12-07T01:19:59;14.17;;;9.47;;
297;SDS011;133;49.626;9.680;2022-12-07T01:22:25;12.90;;;9.53;;
297;SDS011;133;49.626;9.680;2022-12-07T01:24:51;14.80;;;10.30;;
297;SDS011;133;49.626;9.680;2022-12-07T01:27:17;12.40;;;9.80;;
297;SDS011;133;49.626;9.680;2022-12-07T01:29:42;15.00;;;9.60;;
297;SDS011;133;49.626;9.680;2022-12-07T01:32:08;13.43;;;9.27;;
297;SDS011;133;49.626;9.680;2022-12-07T01:34:34;15.00;;;9.93;;
297;SDS011;133;49.626;9.680;2022-12-07T01:36:59;15.57;;;9.87;;
297;SDS011;133;49.626;9.680;2022-12-07T01:39:25;15.23;;;9.80;;
297;SDS011;133;49.626;9.680;2022-12-07T01:41:51;15.90;;;9.93;;
297;SDS011;133;49.626;9.680;2022-12-07T01:46:52;13.83;;;9.03;;
297;SDS011;133;49.626;9.680;2022-12-07T01:51:56;15.67;;;9.77;;
297;SDS011;133;49.626;9.680;2022-12-07T01:54:26;14.57;;;9.40;;
297;SDS011;133;49.626;9.680;2022-12-07T01:56:52;18.30;;;10.07;;
297;SDS011;133;49.626;9.680;2022-12-07T01:59:19;17.27;;;9.63;;
297;SDS011;133;49.626;9.680;2022-12-07T02:01:49;12.80;;;9.57;;
297;SDS011;133;49.626;9.680;2022-12-07T02:04:15;14.90;;;9.80;;
297;SDS011;133;49.626;9.680;2022-12-07T02:06:41;16.57;;;11.23;;
297;SDS011;133;49.626;9.680;2022-12-07T02:09:07;16.10;;;9.00;;
297;SDS011;133;49.626;9.680;2022-12-07T02:11:33;14.93;;;9.07;;
297;SDS011;133;49.626;9.680;2022-12-07T02:13:59;14.37;;;9.47;;
297;SDS011;133;49.626;9.680;2022-12-07T02:19:58;15.70;;;9.47;;
297;SDS011;133;49.626;9.680;2022-12-07T02:22:54;20.83;;;12.10;;
297;SDS011;133;49.626;9.680;2022-12-07T02:25:55;17.27;;;11.10;;
297;SDS011;133;49.626;9.680;2022-12-07T02:28:28;16.07;;;10.27;;
297;SDS011;133;49.626;9.680;2022-12-07T02:30:54;14.20;;;9.30;;
297;SDS011;133;49.626;9.680;2022-12-07T02:33:36;13.23;;;9.67;;
297;SDS011;133;49.626;9.680;2022-12-07T02:36:08;15.73;;;9.50;;
297;SDS011;133;49.626;9.680;2022-12-07T02:38:48;15.20;;;9.80;;
297;SDS011;133;49.626;9.680;2022-12-07T02:41:34;14.37;;;9.10;;
297;SDS011;133;49.626;9.680;2022-12-07T02:44:05;14.93;;;9.60;;
297;SDS011;133;49.626;9.680;2022-12-07T02:46:38;13.63;;;9.63;;
297;SDS011;133;49.626;9.680;2022-12-07T02:49:12;14.80;;;9.80;;
297;SDS011;133;49.626;9.680;2022-12-07T02:51:39;14.87;;;10.80;;
297;SDS011;133;49.626;9.680;2022-12-07T02:54:10;16.27;;;10.70;;
297;SDS011;133;49.626;9.680;2022-12-07T03:13:09;15.63;;;10.70;;
297;SDS011;133;49.626;9.680;2022-12-07T03:15:54;14.77;;;9.90;;
297;SDS011;133;49.626;9.680;2022-12-07T03:18:35;15.97;;;10.37;;
297;SDS011;133;49.626;9.680;2022-12-07T03:21:06;15.73;;;10.30;;
297;SDS011;133;49.626;9.680;2022-12-07T03:23:36;14.80;;;10.00;;
297;SDS011;133;49.626;9.680;2022-12-07T03:26:05;14.80;;;10.30;;
297;SDS011;133;49.626;9.680;2022-12-07T03:28:35;13.50;;;9.90;;
297;SDS011;133;49.626;9.680;2022-12-07T03:31:06;16.97;;;10.40;;
297;SDS011;133;49.626;9.680;2022-12-07T03:33:42;15.27;;;9.50;;
297;SDS011;133;49.626;9.680;2022-12-07T03:36:25;16.43;;;10.73;;
297;SDS011;133;49.626;9.680;2022-12-07T03:41:40;18.57;;;10.90;;
297;SDS011;133;49.626;9.680;2022-12-07T03:44:05;13.77;;;9.80;;
297;SDS011;133;49.626;9.680;2022-12-07T03:57:26;17.03;;;9.67;;
297;SDS011;133;49.626;9.680;2022-12-07T03:59:54;16.40;;;10.53;;
297;SDS011;133;49.626;9.680;2022-12-07T04:02:22;18.10;;;10.50;;
297;SDS011;133;49.626;9.680;2022-12-07T04:04:50;14.57;;;9.77;;
297;SDS011;133;49.626;9.680;2022-12-07T04:07:16;15.40;;;10.43;;
297;SDS011;133;49.626;9.680;2022-12-07T04:09:41;13.27;;;9.60;;
297;SDS011;133;49.626;9.680;2022-12-07T04:12:07;12.43;;;9.50;;
297;SDS011;133;49.626;9.680;2022-12-07T04:14:32;14.90;;;9.87;;
297;SDS011;133;49.626;9.680;2022-12-07T04:16:58;14.90;;;9.80;;
297;SDS011;133;49.626;9.680;2022-12-07T04:19:25;12.73;;;9.80;;
297;SDS011;133;49.626;9.680;2022-12-07T04:21:52;13.00;;;9.10;;
297;SDS011;133;49.626;9.680;2022-12-07T04:24:18;14.30;;;10.20;;
297;SDS011;133;49.626;9.680;2022-12-07T04:26:45;11.40;;;8.83;;
297;SDS011;133;49.626;9.680;2022-12-07T04:29:11;14.07;;;9.47;;
297;SDS011;133;49.626;9.680;2022-12-07T04:31:37;15.50;;;10.13;;
297;SDS011;133;49.626;9.680;2022-12-07T04:34:03;13.00;;;8.87;;
297;SDS011;133;49.626;9.680;2022-12-07T04:36:30;12.60;;;8.93;;
297;SDS011;133;49.626;9.680;2022-12-07T04:38:55;12.50;;;8.70;;
297;SDS011;133;49.626;9.680;2022-12-07T04:41:22;12.70;;;9.17;;
297;SDS011;133;49.626;9.680;2022-12-07T04:43:54;11.33;;;8.20;;
297;SDS011;133;49.626;9.680;2022-12-07T04:46:23;16.47;;;9.07;;
297;SDS011;133;49.626;9.680;2022-12-07T04:48:50;14.57;;;9.63;;
297;SDS011;133;49.626;9.680;2022-12-07T04:51:18;13.80;;;9.47;;
297;SDS011;133;49.626;9.680;2022-12-07T04:53:46;12.97;;;9.10;;
297;SDS011;133;49.626;9.680;2022-12-07T04:56:13;14.13;;;9.87;;
297;SDS011;133;49.626;9.680;2022-12-07T04:58:39;12.13;;;9.00;;
297;SDS011;133;49.626;9.680;2022-12-07T05:01:06;15.93;;;9.77;;
297;SDS011;133;49.626;9.680;2022-12-07T05:03:32;13.87;;;9.10;;
297;SDS011;133;49.626;9.680;2022-12-07T05:05:57;13.67;;;9.20;;
297;SDS011;133;49.626;9.680;2022-12-07T05:08:23;13.50;;;9.57;;
297;SDS011;133;49.626;9.680;2022-12-07T05:10:49;15.17;;;9.70;;
297;SDS011;133;49.626;9.680;2022-12-07T05:13:14;15.53;;;10.33;;
297;SDS011;133;49.626;9.680;2022-12-07T05:15:40;15.90;;;10.43;;
297;SDS011;133;49.626;9.680;2022-12-07T05:18:07;17.23;;;10.73;;
297;SDS011;133;49.626;9.680;2022-12-07T05:20:34;16.37;;;10.70;;
297;SDS011;133;49.626;9.680;2022-12-07T05:22:59;16.10;;;10.60;;
297;SDS011;133;49.626;9.680;2022-12-07T05:25:25;20.77;;;13.50;;
297;SDS011;133;49.626;9.680;2022-12-07T05:27:50;59.40;;;33.13;;
297;SDS011;133;49.626;9.680;2022-12-07T05:30:16;38.03;;;21.13;;
297;SDS011;133;49.626;9.680;2022-12-07T05:32:42;26.80;;;15.40;;
297;SDS011;133;49.626;9.680;2022-12-07T05:35:07;26.07;;;16.20;;
297;SDS011;133;49.626;9.680;2022-12-07T05:37:33;27.60;;;17.13;;
297;SDS011;133;49.626;9.680;2022-12-07T05:39:59;34.27;;;23.03;;
297;SDS011;133;49.626;9.680;2022-12-07T05:42:24;27.13;;;18.80;;
297;SDS011;133;49.626;9.680;2022-12-07T05:44:50;48.23;;;28.60;;
297;SDS011;133;49.626;9.680;2022-12-07T05:47:16;77.47;;;37.30;;
297;SDS011;133;49.626;9.680;2022-12-07T05:49:41;72.53;;;34.20;;
297;SDS011;133;49.626;9.680;2022-12-07T05:52:07;31.53;;;17.60;;
297;SDS011;133;49.626;9.680;2022-12-07T05:54:33;145.97;;;61.17;;
297;SDS011;133;49.626;9.680;2022-12-07T05:56:59;148.80;;;64.70;;
297;SDS011;133;49.626;9.680;2022-12-07T05:59:24;47.47;;;25.87;;
297;SDS011;133;49.626;9.680;2022-12-07T06:04:22;22.07;;;12.50;;
297;SDS011;133;49.626;9.680;2022-12-07T06:06:50;21.80;;;13.20;;
297;SDS011;133;49.626;9.680;2022-12-07T06:09:16;43.33;;;22.57;;
297;SDS011;133;49.626;9.680;2022-12-07T06:11:43;37.13;;;20.10;;
297;SDS011;133;49.626;9.680;2022-12-07T06:14:27;41.57;;;22.40;;
297;SDS011;133;49.626;9.680;2022-12-07T06:16:53;22.60;;;14.00;;
297;SDS011;133;49.626;9.680;2022-12-07T06:19:18;21.43;;;12.40;;
297;SDS011;133;49.626;9.680;2022-12-07T06:21:44;76.57;;;38.00;;
297;SDS011;133;49.626;9.680;2022-12-07T06:24:10;62.57;;;30.90;;
297;SDS011;133;49.626;9.680;2022-12-07T06:26:37;29.00;;;15.50;;
297;SDS011;133;49.626;9.680;2022-12-07T06:29:02;20.87;;;13.00;;
297;SDS011;133;49.626;9.680;2022-12-07T06:31:28;19.60;;;12.47;;
297;SDS011;133;49.626;9.680;2022-12-07T06:33:58;21.17;;;12.90;;
297;SDS011;133;49.626;9.680;2022-12-07T06:36:25;21.57;;;11.77;;
297;SDS011;133;49.626;9.680;2022-12-07T06:38:51;18.50;;;11.63;;
297;SDS011;133;49.626;9.680;2022-12-07T06:41:17;46.30;;;26.50;;
297;SDS011;133;49.626;9.680;2022-12-07T06:43:43;51.73;;;28.63;;
297;SDS011;133;49.626;9.680;2022-12-07T06:46:09;28.90;;;16.97;;
297;SDS011;133;49.626;9.680;2022-12-07T06:48:34;37.13;;;21.37;;
297;SDS011;133;49.626;9.680;2022-12-07T06:51:00;28.87;;;18.20;;
297;SDS011;133;49.626;9.680;2022-12-07T06:53:26;24.97;;;15.13;;
297;SDS011;133;49.626;9.680;2022-12-07T06:55:51;20.30;;;13.17;;
297;SDS011;133;49.626;9.680;2022-12-07T06:58:17;25.93;;;14.30;;
297;SDS011;133;49.626;9.680;2022-12-07T07:00:43;28.07;;;16.27;;
297;SDS011;133;49.626;9.680;2022-12-07T07:03:09;23.53;;;14.27;;
297;SDS011;133;49.626;9.680;2022-12-07T07:05:35;24.60;;;12.97;;
297;SDS011;133;49.626;9.680;2022-12-07T07:08:01;23.03;;;14.50;;
297;SDS011;133;49.626;9.680;2022-12-07T07:10:27;29.43;;;17.93;;
297;SDS011;133;49.626;9.680;2022-12-07T07:12:53;34.10;;;20.27;;
297;SDS011;133;49.626;9.680;2022-12-07T07:15:18;23.40;;;15.00;;
297;SDS011;133;49.626;9.680;2022-12-07T07:17:44;20.87;;;13.37;;
297;SDS011;133;49.626;9.680;2022-12-07T07:20:10;19.60;;;13.67;;
297;SDS011;133;49.626;9.680;2022-12-07T07:22:36;18.70;;;11.90;;
297;SDS011;133;49.626;9.680;2022-12-07T07:25:02;18.03;;;11.37;;
297;SDS011;133;49.626;9.680;2022-12-07T07:27:28;17.17;;;10.90;;
297;SDS011;133;49.626;9.680;2022-12-07T07:29:53;22.63;;;13.47;;
297;SDS011;133;49.626;9.680;2022-12-07T07:32:19;22.50;;;14.27;;
297;SDS011;133;49.626;9.680;2022-12-07T07:34:46;21.73;;;13.73;;
297;SDS011;133;49.626;9.680;2022-12-07T07:37:12;19.90;;;12.40;;
297;SDS011;133;49.626;9.680;2022-12-07T07:39:38;16.80;;;10.00;;
297;SDS011;133;49.626;9.680;2022-12-07T07:42:04;21.63;;;10.90;;
297;SDS011;133;49.626;9.680;2022-12-07T07:44:29;17.87;;;11.13;;
297;SDS011;133;49.626;9.680;2022-12-07T07:46:55;14.17;;;10.00;;
297;SDS011;133;49.626;9.680;2022-12-07T07:49:21;34.30;;;15.67;;
297;SDS011;133;49.626;9.680;2022-12-07T07:51:46;13.70;;;9.33;;
297;SDS011;133;49.626;9.680;2022-12-07T07:54:12;14.37;;;9.53;;
297;SDS011;133;49.626;9.680;2022-12-07T07:56:37;13.77;;;8.80;;
297;SDS011;133;49.626;9.680;2022-12-07T07:59:03;13.30;;;9.00;;
297;SDS011;133;49.626;9.680;2022-12-07T08:01:29;12.20;;;8.57;;
297;SDS011;133;49.626;9.680;2022-12-07T08:03:54;12.97;;;9.30;;
297;SDS011;133;49.626;9.680;2022-12-07T08:06:20;10.33;;;7.37;;
297;SDS011;133;49.626;9.680;2022-12-07T08:08:45;11.40;;;7.30;;
297;SDS011;133;49.626;9.680;2022-12-07T08:11:11;13.30;;;8.40;;
297;SDS011;133;49.626;9.680;2022-12-07T08:13:37;16.27;;;9.00;;
297;SDS011;133;49.626;9.680;2022-12-07T08:16:03;13.03;;;8.53;;
297;SDS011;133;49.626;9.680;2022-12-07T08:18:30;13.67;;;8.37;;
297;SDS011;133;49.626;9.680;2022-12-07T08:20:59;13.87;;;8.90;;
297;SDS011;133;49.626;9.680;2022-12-07T08:23:28;14.47;;;8.93;;
297;SDS011;133;49.626;9.680;2022-12-07T08:25:54;13.93;;;9.47;;
297;SDS011;133;49.626;9.680;2022-12-07T08:28:20;11.80;;;8.37;;
297;SDS011;133;49.626;9.680;2022-12-07T08:30:45;11.80;;;8.63;;
297;SDS011;133;49.626;9.680;2022-12-07T08:33:11;12.80;;;8.43;;
297;SDS011;133;49.626;9.680;2022-12-07T08:35:37;10.80;;;8.03;;
297;SDS011;133;49.626;9.680;2022-12-07T08:38:03;10.93;;;8.37;;
297;SDS011;133;49.626;9.680;2022-12-07T08:40:29;11.30;;;8.03;;
297;SDS011;133;49.626;9.680;2022-12-07T08:42:56;10.33;;;7.80;;
297;SDS011;133;49.626;9.680;2022-12-07T08:45:21;9.90;;;7.47;;
297;SDS011;133;49.626;9.680;2022-12-07T08:47:51;13.50;;;8.47;;
297;SDS011;133;49.626;9.680;2022-12-07T08:50:21;11.60;;;8.30;;
297;SDS011;133;49.626;9.680;2022-12-07T08:52:51;10.43;;;7.30;;
297;SDS011;133;49.626;9.680;2022-12-07T08:55:20;10.60;;;7.67;;
297;SDS011;133;49.626;9.680;2022-12-07T08:57:46;10.70;;;8.03;;
297;SDS011;133;49.626;9.680;2022-12-07T09:00:12;11.70;;;8.70;;
297;SDS011;133;49.626;9.680;2022-12-07T09:02:39;10.87;;;8.60;;
297;SDS011;133;49.626;9.680;2022-12-07T09:05:05;11.07;;;8.73;;
297;SDS011;133;49.626;9.680;2022-12-07T09:07:32;13.90;;;9.73;;
297;SDS011;133;49.626;9.680;2022-12-07T09:09:59;11.10;;;8.60;;
297;SDS011;133;49.626;9.680;2022-12-07T09:12:25;11.27;;;7.70;;
297;SDS011;133;49.626;9.680;2022-12-07T09:14:50;12.27;;;8.67;;
297;SDS011;133;49.626;9.680;2022-12-07T09:17:16;12.37;;;8.90;;
297;SDS011;133;49.626;9.680;2022-12-07T09:19:41;13.27;;;9.67;;
297;SDS011;133;49.626;9.680;2022-12-07T09:22:07;10.37;;;8.13;;
297;SDS011;133;49.626;9.680;2022-12-07T09:24:33;12.07;;;8.53;;
297;SDS011;133;49.626;9.680;2022-12-07T09:27:00;15.03;;;9.60;;
297;SDS011;133;49.626;9.680;2022-12-07T09:29:26;12.43;;;9.10;;
297;SDS011;133;49.626;9.680;2022-12-07T09:31:51;14.07;;;9.37;;
297;SDS011;133;49.626;9.680;2022-12-07T09:34:17;11.70;;;9.50;;
297;SDS011;133;49.626;9.680;2022-12-07T09:36:43;14.53;;;10.10;;
297;SDS011;133;49.626;9.680;2022-12-07T09:39:09;13.20;;;9.90;;
297;SDS011;133;49.626;9.680;2022-12-07T09:41:37;14.30;;;10.20;;
297;SDS011;133;49.626;9.680;2022-12-07T09:44:05;11.83;;;9.73;;
297;SDS011;133;49.626;9.680;2022-12-07T09:46:38;16.30;;;10.50;;
297;SDS011;133;49.626;9.680;2022-12-07T09:49:05;13.47;;;10.63;;
297;SDS011;133;49.626;9.680;2022-12-07T09:51:59;12.50;;;9.40;;
297;SDS011;133;49.626;9.680;2022-12-07T09:54:25;14.43;;;9.83;;
297;SDS011;133;49.626;9.680;2022-12-07T09:56:51;15.97;;;10.60;;
297;SDS011;133;49.626;9.680;2022-12-07T09:59:17;17.57;;;12.73;;
297;SDS011;133;49.626;9.680;2022-12-07T10:01:44;17.97;;;11.57;;
297;SDS011;133;49.626;9.680;2022-12-07T10:04:15;17.03;;;11.50;;
297;SDS011;133;49.626;9.680;2022-12-07T10:06:43;15.33;;;9.53;;
297;SDS011;133;49.626;9.680;2022-12-07T10:09:12;12.60;;;10.50;;
297;SDS011;133;49.626;9.680;2022-12-07T10:14:33;17.40;;;10.87;;
297;SDS011;133;49.626;9.680;2022-12-07T10:17:00;15.10;;;9.27;;
297;SDS011;133;49.626;9.680;2022-12-07T10:19:27;14.57;;;10.50;;
297;SDS011;133;49.626;9.680;2022-12-07T10:24:30;13.70;;;9.70;;
297;SDS011;133;49.626;9.680;2022-12-07T10:26:55;12.57;;;9.07;;
297;SDS011;133;49.626;9.680;2022-12-07T10:34:37;12.00;;;8.60;;
297;SDS011;133;49.626;9.680;2022-12-07T10:39:42;9.73;;;7.70;;
297;SDS011;133;49.626;9.680;2022-12-07T10:42:15;16.47;;;10.33;;
297;SDS011;133;49.626;9.680;2022-12-07T10:44:45;12.63;;;8.80;;
297;SDS011;133;49.626;9.680;2022-12-07T10:47:19;13.90;;;8.87;;
297;SDS011;133;49.626;9.680;2022-12-07T10:58:12;15.43;;;10.97;;
297;SDS011;133;49.626;9.680;2022-12-07T11:06:09;11.67;;;9.00;;
297;SDS011;133;49.626;9.680;2022-12-07T11:19:20;11.90;;;8.20;;
297;SDS011;133;49.626;9.680;2022-12-07T11:25:10;13.57;;;9.90;;
297;SDS011;133;49.626;9.680;2022-12-07T11:30:38;16.37;;;10.83;;
297;SDS011;133;49.626;9.680;2022-12-07T11:36:22;11.07;;;8.40;;
297;SDS011;133;49.626;9.680;2022-12-07T11:38:50;14.33;;;8.60;;
297;SDS011;133;49.626;9.680;2022-12-07T11:41:23;11.87;;;9.40;;
297;SDS011;133;49.626;9.680;2022-12-07T11:44:00;8.57;;;7.23;;
297;SDS011;133;49.626;9.680;2022-12-07T11:51:45;10.00;;;7.83;;
297;SDS011;133;49.626;9.680;2022-12-07T11:54:19;11.67;;;7.67;;
297;SDS011;133;49.626;9.680;2022-12-07T11:56:50;8.27;;;6.60;;
297;SDS011;133;49.626;9.680;2022-12-07T11:59:19;10.67;;;7.97;;
297;SDS011;133;49.626;9.680;2022-12-07T12:01:55;10.43;;;8.27;;
297;SDS011;133;49.626;9.680;2022-12-07T12:07:21;11.00;;;7.70;;
297;SDS011;133;49.626;9.680;2022-12-07T12:09:59;10.37;;;7.50;;
297;SDS011;133;49.626;9.680;2022-12-07T12:15:33;12.67;;;8.63;;
297;SDS011;133;49.626;9.680;2022-12-07T12:18:21;10.67;;;8.23;;
297;SDS011;133;49.626;9.680;2022-12-07T12:21:06;11.20;;;7.53;;
297;SDS011;133;49.626;9.680;2022-12-07T12:23:37;11.53;;;7.97;;
297;SDS011;133;49.626;9.680;2022-12-07T12:26:15;10.27;;;6.53;;
297;SDS011;133;49.626;9.680;2022-12-07T12:28:50;7.67;;;6.70;;
297;SDS011;133;49.626;9.680;2022-12-07T12:33:47;8.20;;;6.30;;
297;SDS011;133;49.626;9.680;2022-12-07T12:36:19;7.57;;;6.50;;
297;SDS011;133;49.626;9.680;2022-12-07T12:46:48;9.03;;;6.97;;
297;SDS011;133;49.626;9.680;2022-12-07T12:51:48;9.37;;;7.03;;
297;SDS011;133;49.626;9.680;2022-12-07T12:57:36;8.80;;;7.43;;
297;SDS011;133;49.626;9.680;2022-12-07T13:00:23;8.73;;;7.17;;
297;SDS011;133;49.626;9.680;2022-12-07T13:02:50;10.97;;;7.83;;
297;SDS011;133;49.626;9.680;2022-12-07T13:05:23;10.77;;;7.53;;
297;SDS011;133;49.626;9.680;2022-12-07T13:07:57;13.60;;;9.27;;
297;SDS011;133;49.626;9.680;2022-12-07T13:15:44;11.13;;;8.77;;
297;SDS011;133;49.626;9.680;2022-12-07T13:29:11;10.63;;;8.50;;
297;SDS011;133;49.626;9.680;2022-12-07T13:31:51;19.53;;;13.60;;
297;SDS011;133;49.626;9.680;2022-12-07T13:34:35;12.97;;;10.20;;
297;SDS011;133;49.626;9.680;2022-12-07T13:37:14;11.83;;;8.50;;
297;SDS011;133;49.626;9.680;2022-12-07T13:39:52;11.53;;;8.40;;
297;SDS011;133;49.626;9.680;2022-12-07T13:44:51;11.83;;;8.50;;
297;SDS011;133;49.626;9.680;2022-12-07T13:47:25;10.57;;;8.40;;
297;SDS011;133;49.626;9.680;2022-12-07T13:49:53;11.60;;;8.50;;
297;SDS011;133;49.626;9.680;2022-12-07T13:52:24;14.37;;;10.10;;
297;SDS011;133;49.626;9.680;2022-12-07T13:54:58;10.87;;;8.50;;
297;SDS011;133;49.626;9.680;2022-12-07T13:57:25;10.77;;;8.10;;
297;SDS011;133;49.626;9.680;2022-12-07T13:59:52;10.97;;;8.10;;
297;SDS011;133;49.626;9.680;2022-12-07T14:02:22;9.07;;;8.00;;
297;SDS011;133;49.626;9.680;2022-12-07T14:05:06;14.67;;;10.07;;
297;SDS011;133;49.626;9.680;2022-12-07T14:07:49;13.80;;;10.30;;
297;SDS011;133;49.626;9.680;2022-12-07T14:10:25;20.17;;;13.07;;
297;SDS011;133;49.626;9.680;2022-12-07T14:12:59;13.50;;;8.80;;
297;SDS011;133;49.626;9.680;2022-12-07T14:15:30;11.40;;;8.60;;
297;SDS011;133;49.626;9.680;2022-12-07T14:17:58;10.50;;;8.50;;
297;SDS011;133;49.626;9.680;2022-12-07T14:20:29;19.40;;;11.90;;
297;SDS011;133;49.626;9.680;2022-12-07T14:22:56;18.80;;;13.67;;
297;SDS011;133;49.626;9.680;2022-12-07T14:25:26;17.80;;;12.93;;
297;SDS011;133;49.626;9.680;2022-12-07T14:30:26;10.03;;;8.80;;
297;SDS011;133;49.626;9.680;2022-12-07T14:33:02;11.33;;;9.40;;
297;SDS011;133;49.626;9.680;2022-12-07T14:35:30;14.43;;;9.90;;
297;SDS011;133;49.626;9.680;2022-12-07T14:37:56;11.97;;;8.93;;
297;SDS011;133;49.626;9.680;2022-12-07T14:40:23;13.03;;;9.17;;
297;SDS011;133;49.626;9.680;2022-12-07T14:42:59;12.87;;;9.17;;
297;SDS011;133;49.626;9.680;2022-12-07T14:45:26;9.80;;;7.70;;
297;SDS011;133;49.626;9.680;2022-12-07T14:47:54;9.10;;;7.60;;
297;SDS011;133;49.626;9.680;2022-12-07T14:50:19;6.90;;;6.13;;
297;SDS011;133;49.626;9.680;2022-12-07T14:52:47;7.70;;;6.57;;
297;SDS011;133;49.626;9.680;2022-12-07T14:55:30;10.33;;;6.97;;
297;SDS011;133;49.626;9.680;2022-12-07T14:57:56;8.90;;;6.60;;
297;SDS011;133;49.626;9.680;2022-12-07T15:00:24;8.47;;;6.57;;
297;SDS011;133;49.626;9.680;2022-12-07T15:02:51;10.10;;;7.47;;
297;SDS011;133;49.626;9.680;2022-12-07T15:05:19;8.40;;;6.90;;
297;SDS011;133;49.626;9.680;2022-12-07T15:07:47;8.77;;;6.40;;
297;SDS011;133;49.626;9.680;2022-12-07T15:10:17;9.10;;;6.40;;
297;SDS011;133;49.626;9.680;2022-12-07T15:12:47;12.10;;;7.20;;
297;SDS011;133;49.626;9.680;2022-12-07T15:15:13;14.00;;;7.30;;
297;SDS011;133;49.626;9.680;2022-12-07T15:17:39;9.60;;;6.83;;
297;SDS011;133;49.626;9.680;2022-12-07T15:20:05;10.03;;;7.10;;
297;SDS011;133;49.626;9.680;2022-12-07T15:22:37;8.40;;;6.90;;
297;SDS011;133;49.626;9.680;2022-12-07T15:25:03;10.60;;;7.30;;
297;SDS011;133;49.626;9.680;2022-12-07T15:27:30;9.57;;;7.00;;
297;SDS011;133;49.626;9.680;2022-12-07T15:29:56;7.77;;;6.60;;
297;SDS011;133;49.626;9.680;2022-12-07T15:32:22;7.63;;;6.40;;
297;SDS011;133;49.626;9.680;2022-12-07T15:34:48;9.63;;;7.20;;
297;SDS011;133;49.626;9.680;2022-12-07T15:37:15;9.60;;;6.67;;
297;SDS011;133;49.626;9.680;2022-12-07T15:39:40;7.70;;;6.40;;
297;SDS011;133;49.626;9.680;2022-12-07T15:42:06;10.70;;;6.20;;
297;SDS011;133;49.626;9.680;2022-12-07T15:44:32;8.83;;;6.57;;
297;SDS011;133;49.626;9.680;2022-12-07T15:47:16;12.03;;;6.67;;
297;SDS011;133;49.626;9.680;2022-12-07T15:49:41;9.47;;;6.93;;
297;SDS011;133;49.626;9.680;2022-12-07T15:52:10;16.00;;;10.43;;
297;SDS011;133;49.626;9.680;2022-12-07T15:54:35;11.63;;;9.27;;
297;SDS011;133;49.626;9.680;2022-12-07T15:57:02;15.87;;;9.97;;
297;SDS011;133;49.626;9.680;2022-12-07T15:59:28;14.87;;;10.80;;
297;SDS011;133;49.626;9.680;2022-12-07T16:01:54;14.67;;;11.33;;
297;SDS011;133;49.626;9.680;2022-12-07T16:04:20;15.77;;;11.20;;
297;SDS011;133;49.626;9.680;2022-12-07T16:06:45;14.73;;;10.60;;
297;SDS011;133;49.626;9.680;2022-12-07T16:09:11;15.13;;;11.00;;
297;SDS011;133;49.626;9.680;2022-12-07T16:11:37;15.80;;;10.60;;
297;SDS011;133;49.626;9.680;2022-12-07T16:14:03;16.63;;;9.63;;
297;SDS011;133;49.626;9.680;2022-12-07T16:16:29;11.80;;;8.67;;
297;SDS011;133;49.626;9.680;2022-12-07T16:18:55;11.40;;;8.40;;
297;SDS011;133;49.626;9.680;2022-12-07T16:21:21;12.80;;;9.70;;
297;SDS011;133;49.626;9.680;2022-12-07T16:23:47;17.53;;;10.03;;
297;SDS011;133;49.626;9.680;2022-12-07T16:26:17;12.30;;;9.30;;
297;SDS011;133;49.626;9.680;2022-12-07T16:28:45;12.70;;;8.90;;
297;SDS011;133;49.626;9.680;2022-12-07T16:31:14;16.13;;;9.07;;
297;SDS011;133;49.626;9.680;2022-12-07T16:33:42;12.77;;;8.93;;
297;SDS011;133;49.626;9.680;2022-12-07T16:36:09;11.40;;;9.20;;
297;SDS011;133;49.626;9.680;2022-12-07T16:38:37;12.87;;;8.93;;
297;SDS011;133;49.626;9.680;2022-12-07T16:41:04;12.37;;;9.80;;
297;SDS011;133;49.626;9.680;2022-12-07T16:43:31;13.90;;;9.77;;
297;SDS011;133;49.626;9.680;2022-12-07T16:45:57;21.47;;;11.73;;
297;SDS011;133;49.626;9.680;2022-12-07T16:48:23;16.00;;;10.87;;
297;SDS011;133;49.626;9.680;2022-12-07T16:50:48;17.40;;;12.30;;
297;SDS011;133;49.626;9.680;2022-12-07T16:53:14;16.37;;;11.13;;
297;SDS011;133;49.626;9.680;2022-12-07T16:55:41;16.13;;;10.53;;
297;SDS011;133;49.626;9.680;2022-12-07T16:58:08;15.13;;;10.83;;
297;SDS011;133;49.626;9.680;2022-12-07T17:00:35;13.30;;;9.87;;
297;SDS011;133;49.626;9.680;2022-12-07T17:03:01;15.30;;;10.70;;
297;SDS011;133;49.626;9.680;2022-12-07T17:05:26;14.37;;;10.50;;
297;SDS011;133;49.626;9.680;2022-12-07T17:07:54;15.67;;;11.30;;
297;SDS011;133;49.626;9.680;2022-12-07T17:10:20;17.80;;;11.97;;
297;SDS011;133;49.626;9.680;2022-12-07T17:12:46;14.73;;;11.23;;
297;SDS011;133;49.626;9.680;2022-12-07T17:15:12;23.63;;;11.23;;
297;SDS011;133;49.626;9.680;2022-12-07T17:17:57;15.20;;;11.03;;
297;SDS011;133;49.626;9.680;2022-12-07T17:20:24;18.33;;;11.80;;
297;SDS011;133;49.626;9.680;2022-12-07T17:22:51;17.37;;;12.50;;
297;SDS011;133;49.626;9.680;2022-12-07T17:25:18;18.07;;;11.87;;
297;SDS011;133;49.626;9.680;2022-12-07T17:27:45;15.30;;;11.03;;
297;SDS011;133;49.626;9.680;2022-12-07T17:30:12;17.07;;;12.10;;
297;SDS011;133;49.626;9.680;2022-12-07T17:32:38;17.43;;;12.20;;
297;SDS011;133;49.626;9.680;2022-12-07T17:35:04;17.03;;;11.40;;
297;SDS011;133;49.626;9.680;2022-12-07T17:37:32;17.17;;;12.20;;
297;SDS011;133;49.626;9.680;2022-12-07T17:39:57;20.30;;;13.40;;
297;SDS011;133;49.626;9.680;2022-12-07T17:42:26;18.20;;;13.20;;
297;SDS011;133;49.626;9.680;2022-12-07T17:45:10;24.43;;;14.33;;
297;SDS011;133;49.626;9.680;2022-12-07T17:47:38;19.20;;;12.87;;
297;SDS011;133;49.626;9.680;2022-12-07T17:50:04;22.10;;;12.80;;